createdAt,value
2023-07-25T00:02:12.251Z,14.59
2023-07-25T00:04:40.638Z,14.55
2023-07-25T00:07:09.184Z,14.46
2023-07-25T00:09:37.630Z,14.36
2023-07-25T00:12:07.903Z,14.28
2023-07-25T00:14:37.185Z,14.25
2023-07-25T00:17:06.123Z,14.15
2023-07-25T00:19:34.452Z,14.21
2023-07-25T00:22:03.448Z,14.18
2023-07-25T00:24:32.054Z,14.20
2023-07-25T00:27:00.482Z,14.20
2023-07-25T00:29:30.272Z,14.19
2023-07-25T00:31:58.627Z,14.14
2023-07-25T00:34:27.322Z,14.11
2023-07-25T00:36:55.787Z,14.08
2023-07-25T00:39:24.276Z,14.15
2023-07-25T00:41:52.696Z,14.15
2023-07-25T00:44:21.291Z,14.17
2023-07-25T00:46:51.092Z,14.12
2023-07-25T00:49:19.480Z,14.07
2023-07-25T00:51:47.955Z,14.25
2023-07-25T00:54:16.553Z,14.18
2023-07-25T00:56:45.273Z,14.18
2023-07-25T00:59:13.885Z,14.16
2023-07-25T01:01:42.297Z,14.13
2023-07-25T01:04:12.355Z,14.13
2023-07-25T01:06:41.523Z,14.41
2023-07-25T01:09:09.953Z,14.38
2023-07-25T01:11:38.305Z,14.43
2023-07-25T01:14:06.788Z,14.42
2023-07-25T01:16:37.245Z,14.18
2023-07-25T01:19:05.725Z,14.16
2023-07-25T01:21:35.673Z,14.42
2023-07-25T01:24:05.713Z,14.52
2023-07-25T01:26:34.512Z,14.53
2023-07-25T01:29:03.027Z,14.54
2023-07-25T01:31:31.613Z,14.37
2023-07-25T01:34:00.223Z,14.43
2023-07-25T01:36:28.652Z,14.47
2023-07-25T01:38:57.556Z,14.47
2023-07-25T01:41:27.301Z,14.49
2023-07-25T01:43:55.828Z,14.48
2023-07-25T01:46:24.372Z,14.50
2023-07-25T01:48:52.701Z,14.48
2023-07-25T01:51:21.156Z,14.52
2023-07-25T01:53:49.550Z,14.56
2023-07-25T01:56:17.842Z,14.55
2023-07-25T01:58:48.222Z,14.51
2023-07-25T02:01:16.663Z,14.56
2023-07-25T02:03:45.298Z,14.55
2023-07-25T02:06:13.778Z,14.65
2023-07-25T02:08:42.203Z,14.64
2023-07-25T02:11:11.207Z,14.65
2023-07-25T02:13:39.908Z,14.64
2023-07-25T02:16:09.981Z,14.63
2023-07-25T02:18:38.574Z,14.55
2023-07-25T02:21:26.887Z,14.59
2023-07-25T02:23:55.279Z,14.66
2023-07-25T02:26:23.695Z,14.69
2023-07-25T02:28:52.327Z,14.69
2023-07-25T02:31:22.203Z,14.55
2023-07-25T02:33:50.652Z,14.62
2023-07-25T02:36:19.173Z,14.67
2023-07-25T02:38:47.558Z,14.70
2023-07-25T02:41:16.505Z,14.69
2023-07-25T02:43:44.946Z,14.68
2023-07-25T02:46:13.307Z,14.71
2023-07-25T02:48:43.161Z,14.70
2023-07-25T02:51:11.624Z,14.72
2023-07-25T02:53:39.946Z,14.71
2023-07-25T02:56:08.306Z,14.77
2023-07-25T02:58:36.758Z,14.91
2023-07-25T03:01:05.617Z,14.98
2023-07-25T03:03:33.992Z,15.03
2023-07-25T03:06:03.862Z,15.12
2023-07-25T03:08:32.244Z,15.10
2023-07-25T03:11:00.616Z,15.16
2023-07-25T03:13:29.581Z,15.17
2023-07-25T03:15:58.016Z,15.22
2023-07-25T03:18:26.561Z,15.24
2023-07-25T03:20:55.038Z,15.27
2023-07-25T03:23:24.856Z,15.31
2023-07-25T03:25:53.441Z,15.35
2023-07-25T03:28:22.005Z,15.33
2023-07-25T03:30:50.376Z,15.38
2023-07-25T03:33:19.255Z,15.44
2023-07-25T03:35:47.811Z,15.45
2023-07-25T03:38:16.202Z,15.49
2023-07-25T03:40:46.125Z,15.58
2023-07-25T03:43:14.978Z,15.57
2023-07-25T03:45:43.958Z,15.70
2023-07-25T03:48:12.577Z,15.80
2023-07-25T03:50:41.148Z,15.96
2023-07-25T03:53:10.986Z,16.15
2023-07-25T03:55:39.529Z,16.28
2023-07-25T03:58:09.385Z,16.25
2023-07-25T04:00:37.836Z,16.29
2023-07-25T04:03:15.057Z,16.32
2023-07-25T04:05:44.675Z,16.36
2023-07-25T04:08:13.204Z,16.37
2023-07-25T04:10:41.572Z,16.37
2023-07-25T04:13:11.442Z,16.39
2023-07-25T04:15:39.803Z,16.40
2023-07-25T04:18:08.792Z,16.40
2023-07-25T04:20:37.302Z,16.41
2023-07-25T04:23:05.712Z,16.42
2023-07-25T04:25:34.261Z,16.46
2023-07-25T04:28:02.753Z,16.50
2023-07-25T04:30:32.572Z,16.45
2023-07-25T04:33:00.930Z,16.46
2023-07-25T04:35:29.440Z,16.53
2023-07-25T04:37:58.327Z,16.59
2023-07-25T04:40:27.472Z,16.70
2023-07-25T04:42:55.940Z,16.84
2023-07-25T04:45:24.343Z,16.87
2023-07-25T04:47:54.122Z,16.83
2023-07-25T04:50:23.233Z,16.77
2023-07-25T04:52:51.606Z,16.75
2023-07-25T04:55:20.014Z,16.69
2023-07-25T04:57:48.677Z,16.72
2023-07-25T05:00:17.396Z,16.71
2023-07-25T05:02:45.945Z,16.76
2023-07-25T05:05:15.861Z,16.77
2023-07-25T05:07:44.237Z,16.85
2023-07-25T05:10:13.368Z,16.93
2023-07-25T05:12:41.898Z,16.99
2023-07-25T05:15:10.599Z,17.14
2023-07-25T05:17:39.000Z,17.25
2023-07-25T05:20:09.008Z,17.16
2023-07-25T05:22:38.938Z,17.14
2023-07-25T05:25:07.915Z,17.38
2023-07-25T05:27:36.528Z,17.62
2023-07-25T05:30:05.492Z,17.75
2023-07-25T05:32:36.359Z,17.88
2023-07-25T05:35:06.500Z,17.96
2023-07-25T05:37:40.174Z,18.18
2023-07-25T05:40:09.554Z,18.48
2023-07-25T05:42:38.510Z,18.86
2023-07-25T05:45:07.976Z,18.96
2023-07-25T05:47:36.451Z,18.84
2023-07-25T05:50:04.982Z,18.75
2023-07-25T05:52:33.780Z,18.92
2023-07-25T05:55:04.289Z,19.35
2023-07-25T05:57:33.560Z,19.57
2023-07-25T06:00:01.954Z,19.57
2023-07-25T06:02:34.324Z,19.78
2023-07-25T06:05:03.002Z,19.74
2023-07-25T06:07:32.040Z,19.71
2023-07-25T06:10:00.490Z,19.70
2023-07-25T06:12:30.278Z,19.46
2023-07-25T06:14:59.159Z,19.61
2023-07-25T06:17:27.712Z,20.04
2023-07-25T06:19:56.081Z,20.40
2023-07-25T06:22:24.770Z,20.20
2023-07-25T06:24:53.349Z,19.85
2023-07-25T06:27:24.367Z,20.16
2023-07-25T06:29:56.408Z,20.41
2023-07-25T06:32:25.524Z,20.74
2023-07-25T06:34:54.097Z,20.91
2023-07-25T06:37:22.543Z,21.01
2023-07-25T06:39:50.921Z,21.40
2023-07-25T06:42:19.486Z,21.49
2023-07-25T06:44:47.957Z,21.56
2023-07-25T06:47:17.958Z,21.82
2023-07-25T06:49:46.360Z,21.59
2023-07-25T06:52:14.996Z,22.01
2023-07-25T06:54:44.787Z,22.62
2023-07-25T06:57:13.503Z,24.53
2023-07-25T06:59:42.618Z,24.69
2023-07-25T07:02:11.382Z,25.79
2023-07-25T07:04:41.343Z,26.44
2023-07-25T07:07:09.998Z,25.35
2023-07-25T07:09:38.607Z,25.63
2023-07-25T07:12:08.185Z,24.20
2023-07-25T07:14:37.241Z,22.73
2023-07-25T07:17:06.246Z,22.58
2023-07-25T07:19:37.179Z,22.35
2023-07-25T07:22:07.401Z,23.91
2023-07-25T07:24:36.027Z,23.69
2023-07-25T07:27:05.107Z,23.91
2023-07-25T07:29:33.610Z,26.47
2023-07-25T07:32:04.461Z,25.52
2023-07-25T07:34:33.322Z,26.95
2023-07-25T07:37:01.875Z,26.48
2023-07-25T07:39:31.865Z,24.75
2023-07-25T07:42:00.468Z,23.69
2023-07-25T07:44:28.984Z,24.00
2023-07-25T07:46:57.910Z,23.70
2023-07-25T07:49:26.528Z,22.43
2023-07-25T07:52:11.611Z,22.09
2023-07-25T07:54:45.254Z,22.84
2023-07-25T07:57:13.740Z,22.38
2023-07-25T07:59:45.029Z,22.08
2023-07-25T08:02:14.203Z,22.49
2023-07-25T08:04:42.765Z,23.19
2023-07-25T08:07:11.299Z,22.51
2023-07-25T08:09:39.865Z,22.10
2023-07-25T08:12:10.679Z,21.88
2023-07-25T08:14:39.271Z,22.44
2023-07-25T08:17:07.860Z,22.90
2023-07-25T08:19:36.324Z,23.03
2023-07-25T08:22:05.708Z,23.95
2023-07-25T08:24:34.464Z,23.72
2023-07-25T08:27:03.199Z,23.25
2023-07-25T08:29:33.265Z,22.80
2023-07-25T08:32:01.816Z,23.14
2023-07-25T08:34:30.937Z,24.26
2023-07-25T08:36:59.877Z,24.45
2023-07-25T08:39:28.678Z,23.78
2023-07-25T08:41:57.966Z,22.95
2023-07-25T08:44:28.229Z,22.35
2023-07-25T08:46:58.699Z,21.91
2023-07-25T08:49:30.578Z,21.67
2023-07-25T08:52:01.141Z,21.42
2023-07-25T08:54:33.350Z,21.27
2023-07-25T08:57:03.283Z,21.15
2023-07-25T08:59:32.548Z,21.05
2023-07-25T09:02:03.551Z,21.00
2023-07-25T09:04:32.931Z,20.96
2023-07-25T09:07:02.405Z,21.02
2023-07-25T09:09:31.026Z,21.19
2023-07-25T09:11:59.799Z,21.40
2023-07-25T09:14:28.293Z,23.01
2023-07-25T09:16:56.937Z,22.96
2023-07-25T09:19:26.944Z,23.34
2023-07-25T09:21:58.331Z,24.08
2023-07-25T09:24:37.801Z,24.10
2023-07-25T09:27:07.632Z,23.93
2023-07-25T09:29:40.045Z,23.27
2023-07-25T09:32:20.090Z,22.86
2023-07-25T09:34:55.777Z,23.31
2023-07-25T09:37:24.348Z,23.66
2023-07-25T09:39:53.118Z,24.02
2023-07-25T09:42:23.439Z,24.03
2023-07-25T09:44:53.460Z,24.34
2023-07-25T09:47:26.003Z,24.42
2023-07-25T09:49:58.040Z,25.02
2023-07-25T09:52:26.602Z,24.91
2023-07-25T09:54:55.569Z,25.18
2023-07-25T09:57:24.287Z,26.69
2023-07-25T09:59:54.103Z,28.82
2023-07-25T10:02:22.645Z,27.46
2023-07-25T10:04:52.165Z,26.31
2023-07-25T10:07:25.189Z,25.55
2023-07-25T10:09:54.541Z,25.45
2023-07-25T10:12:23.007Z,25.21
2023-07-25T10:14:51.562Z,24.61
2023-07-25T10:17:20.191Z,23.94
2023-07-25T10:19:50.205Z,23.55
2023-07-25T10:22:19.184Z,23.31
2023-07-25T10:24:49.268Z,23.32
2023-07-25T10:27:18.117Z,23.28
2023-07-25T10:29:48.025Z,23.16
2023-07-25T10:32:17.342Z,23.08
2023-07-25T10:34:48.387Z,23.20
2023-07-25T10:37:32.225Z,23.16
2023-07-25T10:40:12.603Z,23.01
2023-07-25T10:42:59.826Z,23.73
2023-07-25T10:45:51.222Z,23.90
2023-07-25T10:48:30.898Z,23.46
2023-07-25T10:51:00.013Z,23.24
2023-07-25T10:53:28.475Z,23.14
2023-07-25T10:56:17.709Z,23.00
2023-07-25T10:59:13.807Z,22.92
2023-07-25T11:01:46.793Z,22.94
2023-07-25T11:04:23.269Z,23.13
2023-07-25T11:06:52.480Z,22.95
2023-07-25T11:09:22.499Z,22.85
2023-07-25T11:11:54.465Z,22.83
2023-07-25T11:14:23.956Z,22.78
2023-07-25T11:16:54.729Z,22.83
2023-07-25T11:19:30.066Z,22.91
2023-07-25T11:21:58.822Z,22.95
2023-07-25T11:24:26.431Z,23.02
2023-07-25T11:26:56.911Z,23.21
2023-07-25T11:29:26.077Z,23.63
2023-07-25T11:31:54.532Z,23.72
2023-07-25T11:34:23.487Z,23.85
2023-07-25T11:36:52.018Z,24.34
2023-07-25T11:39:20.714Z,24.49
2023-07-25T11:41:50.159Z,24.70
2023-07-25T11:44:22.244Z,24.55
2023-07-25T11:46:53.446Z,24.71
2023-07-25T11:49:40.161Z,25.03
2023-07-25T11:52:12.317Z,24.55
2023-07-25T11:54:41.057Z,24.23
2023-07-25T11:57:12.200Z,24.23
2023-07-25T11:59:45.737Z,24.16
2023-07-25T12:02:14.800Z,23.99
2023-07-25T12:04:46.884Z,23.92
2023-07-25T12:07:15.601Z,23.91
2023-07-25T12:09:52.802Z,23.82
2023-07-25T12:12:22.439Z,23.69
2023-07-25T12:14:59.922Z,23.70
2023-07-25T12:17:44.805Z,23.70
2023-07-25T12:20:17.739Z,23.58
2023-07-25T12:22:46.046Z,23.49
2023-07-25T12:25:18.838Z,23.44
2023-07-25T12:27:50.071Z,23.37
2023-07-25T12:30:20.588Z,23.37
2023-07-25T12:32:49.580Z,23.42
2023-07-25T12:35:18.675Z,23.52
2023-07-25T12:37:47.298Z,23.63
2023-07-25T12:40:15.970Z,23.83
2023-07-25T12:42:46.673Z,23.89
2023-07-25T12:45:15.336Z,24.05
2023-07-25T12:47:45.508Z,24.33
2023-07-25T12:50:15.141Z,24.34
2023-07-25T12:52:44.281Z,24.36
2023-07-25T12:55:13.052Z,24.21
2023-07-25T12:57:41.960Z,24.14
2023-07-25T13:00:11.330Z,24.38
2023-07-25T13:02:40.546Z,24.57
2023-07-25T13:05:10.905Z,24.48
2023-07-25T13:07:39.533Z,24.58
2023-07-25T13:10:11.722Z,24.56
2023-07-25T13:12:40.870Z,24.42
2023-07-25T13:15:10.638Z,24.20
2023-07-25T13:17:39.292Z,24.12
2023-07-25T13:20:10.335Z,23.86
2023-07-25T13:22:39.517Z,23.81
2023-07-25T13:25:08.708Z,23.78
2023-07-25T13:27:37.482Z,23.81
2023-07-25T13:30:06.936Z,23.87
2023-07-25T13:32:35.422Z,24.00
2023-07-25T13:35:04.098Z,23.94
2023-07-25T13:37:34.686Z,23.98
2023-07-25T13:40:03.203Z,23.92
2023-07-25T13:42:33.602Z,23.88
2023-07-25T13:45:02.116Z,23.89
2023-07-25T13:47:34.573Z,23.98
2023-07-25T13:50:04.081Z,24.03
2023-07-25T13:52:36.449Z,23.96
2023-07-25T13:55:06.530Z,23.91
2023-07-25T13:57:37.445Z,23.84
2023-07-25T14:00:09.055Z,23.86
2023-07-25T14:02:39.065Z,23.87
2023-07-25T14:05:09.036Z,23.87
2023-07-25T14:07:39.365Z,23.88
2023-07-25T14:10:09.003Z,23.88
2023-07-25T14:12:37.837Z,23.85
2023-07-25T14:15:07.465Z,23.80
2023-07-25T14:17:36.250Z,23.67
2023-07-25T14:20:05.919Z,23.72
2023-07-25T14:22:34.801Z,23.65
2023-07-25T14:25:05.408Z,23.50
2023-07-25T14:27:34.188Z,23.37
2023-07-25T14:30:03.250Z,23.31
2023-07-25T14:32:33.897Z,23.33
2023-07-25T14:35:02.570Z,23.38
2023-07-25T14:37:48.204Z,23.43
2023-07-25T14:40:22.458Z,23.40
2023-07-25T14:42:50.956Z,23.38
2023-07-25T14:45:19.486Z,23.41
2023-07-25T14:47:49.128Z,23.44
2023-07-25T14:50:17.907Z,23.46
2023-07-25T14:52:46.503Z,23.44
2023-07-25T14:55:15.174Z,23.39
2023-07-25T14:57:45.197Z,23.33
2023-07-25T15:00:15.258Z,23.29
2023-07-25T15:02:43.773Z,23.33
2023-07-25T15:05:12.285Z,23.43
2023-07-25T15:07:41.319Z,23.58
2023-07-25T15:10:10.643Z,23.60
2023-07-25T15:12:39.381Z,23.58
2023-07-25T15:15:10.858Z,23.54
2023-07-25T15:17:39.585Z,23.43
2023-07-25T15:20:11.347Z,23.31
2023-07-25T15:22:40.396Z,23.26
2023-07-25T15:25:09.658Z,23.15
2023-07-25T15:27:38.299Z,23.05
2023-07-25T15:30:07.752Z,22.99
2023-07-25T15:32:37.971Z,22.96
2023-07-25T15:35:10.334Z,22.89
2023-07-25T15:37:39.047Z,22.89
2023-07-25T15:40:09.577Z,22.88
2023-07-25T15:42:38.134Z,22.85
2023-07-25T15:45:07.593Z,22.86
2023-07-25T15:47:37.861Z,22.84
2023-07-25T15:50:07.047Z,22.80
2023-07-25T15:52:36.593Z,22.76
2023-07-25T15:55:05.671Z,22.69
2023-07-25T15:57:34.357Z,22.75
2023-07-25T16:00:02.909Z,22.75
2023-07-25T16:02:34.032Z,22.72
2023-07-25T16:05:04.167Z,22.71
2023-07-25T16:07:35.646Z,22.70
2023-07-25T16:10:06.554Z,22.67
2023-07-25T16:12:35.653Z,22.62
2023-07-25T16:15:04.469Z,22.63
2023-07-25T16:17:35.334Z,22.61
2023-07-25T16:20:06.110Z,22.60
2023-07-25T16:22:34.647Z,22.60
2023-07-25T16:25:04.481Z,22.58
2023-07-25T16:27:34.279Z,22.56
2023-07-25T16:30:03.371Z,22.50
2023-07-25T16:32:35.063Z,22.48
2023-07-25T16:35:05.346Z,22.46
2023-07-25T16:37:34.944Z,22.44
2023-07-25T16:40:05.036Z,22.42
2023-07-25T16:42:33.994Z,22.40
2023-07-25T16:45:04.292Z,22.37
2023-07-25T16:47:35.634Z,22.34
2023-07-25T16:50:05.963Z,22.29
2023-07-25T16:52:35.969Z,22.25
2023-07-25T16:55:06.769Z,22.22
2023-07-25T16:57:35.474Z,22.16
2023-07-25T17:00:05.248Z,22.15
2023-07-25T17:02:35.150Z,22.12
2023-07-25T17:05:05.663Z,22.13
2023-07-25T17:07:34.735Z,22.10
2023-07-25T17:10:03.156Z,22.07
2023-07-25T17:12:33.653Z,22.06
2023-07-25T17:15:02.393Z,22.05
2023-07-25T17:17:34.129Z,22.03
2023-07-25T17:20:03.083Z,22.01
2023-07-25T17:22:34.350Z,21.98
2023-07-25T17:25:02.731Z,21.94
2023-07-25T17:27:35.513Z,21.88
2023-07-25T17:30:06.732Z,21.85
2023-07-25T17:32:36.079Z,21.84
2023-07-25T17:35:07.159Z,21.74
2023-07-25T17:37:41.114Z,21.62
2023-07-25T17:40:10.872Z,21.62
2023-07-25T17:42:39.337Z,21.59
2023-07-25T17:45:08.906Z,21.56
2023-07-25T17:47:38.104Z,21.47
2023-07-25T17:50:07.831Z,21.38
2023-07-25T17:52:37.731Z,21.28
2023-07-25T17:55:07.085Z,21.20
2023-07-25T17:57:36.121Z,21.14
2023-07-25T18:00:04.950Z,21.04
2023-07-25T18:02:33.631Z,20.91
2023-07-25T18:05:02.271Z,20.79
2023-07-25T18:07:32.198Z,20.75
2023-07-25T18:10:02.205Z,20.72
2023-07-25T18:12:32.839Z,20.71
2023-07-25T18:15:01.213Z,20.57
2023-07-25T18:17:30.508Z,20.67
2023-07-25T18:19:59.688Z,20.66
2023-07-25T18:22:32.388Z,20.58
2023-07-25T18:25:02.617Z,20.56
2023-07-25T18:27:33.680Z,20.57
2023-07-25T18:30:02.764Z,20.48
2023-07-25T18:32:35.118Z,20.41
2023-07-25T18:35:04.190Z,20.36
2023-07-25T18:37:33.405Z,20.41
2023-07-25T18:40:03.412Z,20.42
2023-07-25T18:42:33.778Z,20.40
2023-07-25T18:45:02.289Z,20.46
2023-07-25T18:47:35.628Z,20.51
2023-07-25T18:50:05.106Z,20.57
2023-07-25T18:52:34.797Z,20.66
2023-07-25T18:55:04.862Z,20.64
2023-07-25T18:57:34.617Z,20.61
2023-07-25T19:00:03.886Z,20.62
2023-07-25T19:02:36.182Z,20.66
2023-07-25T19:05:04.995Z,20.68
2023-07-25T19:07:33.587Z,20.68
2023-07-25T19:10:02.065Z,20.72
2023-07-25T19:12:34.380Z,20.68
2023-07-25T19:15:03.001Z,20.64
2023-07-25T19:17:34.787Z,20.59
2023-07-25T19:20:03.733Z,20.52
2023-07-25T19:22:35.520Z,20.44
2023-07-25T19:25:04.478Z,20.36
2023-07-25T19:27:34.757Z,20.30
2023-07-25T19:30:04.497Z,20.17
2023-07-25T19:32:34.825Z,20.08
2023-07-25T19:35:05.287Z,20.04
2023-07-25T19:37:34.604Z,19.97
2023-07-25T19:40:04.412Z,19.98
2023-07-25T19:42:36.365Z,19.93
2023-07-25T19:45:06.165Z,19.85
2023-07-25T19:47:35.374Z,19.79
2023-07-25T19:50:03.867Z,19.80
2023-07-25T19:52:34.500Z,19.77
2023-07-25T19:55:02.984Z,19.70
2023-07-25T19:57:34.374Z,19.69
2023-07-25T20:00:02.881Z,19.61
2023-07-25T20:02:35.423Z,19.50
2023-07-25T20:05:03.907Z,19.45
2023-07-25T20:07:32.451Z,19.45
2023-07-25T20:10:00.973Z,19.32
2023-07-25T20:12:29.538Z,19.23
2023-07-25T20:14:59.336Z,19.19
2023-07-25T20:17:28.805Z,19.14
2023-07-25T20:19:57.864Z,19.10
2023-07-25T20:22:26.310Z,19.06
2023-07-25T20:24:54.958Z,19.12
2023-07-25T20:27:24.251Z,19.00
2023-07-25T20:29:53.337Z,19.03
2023-07-25T20:32:23.247Z,19.07
2023-07-25T20:34:52.319Z,19.01
2023-07-25T20:37:20.750Z,18.94
2023-07-25T20:39:49.483Z,18.94
2023-07-25T20:42:17.874Z,18.95
2023-07-25T20:44:46.955Z,18.99
2023-07-25T20:47:15.885Z,19.01
2023-07-25T20:49:45.921Z,19.06
2023-07-25T20:52:14.803Z,19.06
2023-07-25T20:54:44.051Z,19.07
2023-07-25T20:57:13.176Z,19.09
2023-07-25T20:59:41.533Z,19.11
2023-07-25T21:02:10.022Z,19.05
2023-07-25T21:04:38.533Z,19.04
2023-07-25T21:07:10.462Z,19.03
2023-07-25T21:09:38.905Z,19.02
2023-07-25T21:12:07.899Z,19.01
2023-07-25T21:14:36.491Z,19.00
2023-07-25T21:17:05.410Z,19.00
2023-07-25T21:19:33.850Z,18.95
2023-07-25T21:22:02.396Z,18.94
2023-07-25T21:24:32.517Z,18.96
2023-07-25T21:27:01.120Z,18.99
2023-07-25T21:29:30.173Z,18.95
2023-07-25T21:31:58.772Z,18.92
2023-07-25T21:34:27.294Z,18.92
2023-07-25T21:36:55.820Z,18.89
2023-07-25T21:39:24.871Z,18.86
2023-07-25T21:41:54.583Z,18.80
2023-07-25T21:44:22.992Z,18.77
2023-07-25T21:46:51.408Z,18.71
2023-07-25T21:49:20.209Z,18.65
2023-07-25T21:51:48.723Z,18.74
2023-07-25T21:54:17.118Z,18.68
2023-07-25T21:56:45.585Z,18.66
2023-07-25T21:59:15.683Z,18.65
2023-07-25T22:01:44.734Z,18.63
2023-07-25T22:04:13.192Z,18.60
2023-07-25T22:06:41.640Z,18.58
2023-07-25T22:09:09.949Z,18.59
2023-07-25T22:11:38.992Z,18.63
2023-07-25T22:14:07.679Z,18.66
2023-07-25T22:16:37.537Z,18.65
2023-07-25T22:19:05.989Z,18.67
2023-07-25T22:21:34.666Z,18.66
2023-07-25T22:24:03.036Z,18.64
2023-07-25T22:26:31.648Z,18.61
2023-07-25T22:29:00.342Z,18.56
2023-07-25T22:31:28.772Z,18.51
2023-07-25T22:33:59.327Z,18.48
2023-07-25T22:36:27.880Z,18.48
2023-07-25T22:38:56.268Z,18.40
2023-07-25T22:41:24.936Z,18.39
2023-07-25T22:43:53.972Z,18.32
2023-07-25T22:46:22.366Z,18.26
2023-07-25T22:48:50.816Z,18.19
2023-07-25T22:51:20.725Z,18.12
2023-07-25T22:53:49.175Z,18.08
2023-07-25T22:56:17.698Z,18.09
2023-07-25T22:58:46.187Z,18.10
2023-07-25T23:01:14.603Z,18.13
2023-07-25T23:03:43.048Z,18.10
2023-07-25T23:06:12.089Z,18.15
2023-07-25T23:08:41.870Z,18.19
2023-07-25T23:11:11.348Z,18.19
2023-07-25T23:13:39.905Z,18.20
2023-07-25T23:16:09.544Z,18.20
2023-07-25T23:18:38.077Z,18.20
2023-07-25T23:21:06.848Z,18.21
2023-07-25T23:23:35.214Z,18.25
2023-07-25T23:26:05.467Z,18.24
2023-07-25T23:28:34.112Z,18.20
2023-07-25T23:31:02.965Z,18.24
2023-07-25T23:33:31.398Z,18.27
2023-07-25T23:35:59.880Z,18.28
2023-07-25T23:38:28.333Z,18.29
2023-07-25T23:40:56.762Z,18.27
2023-07-25T23:43:26.861Z,18.30
2023-07-25T23:45:55.264Z,18.34
2023-07-25T23:48:24.131Z,18.36
2023-07-25T23:50:52.798Z,18.41
2023-07-25T23:53:21.158Z,18.40
2023-07-25T23:55:49.554Z,18.40
2023-07-25T23:58:18.014Z,18.38
